Oberlin, Ohio
Current Conditions -  °F | °C
As of 3:18 AM on Monday 26 Jan 2015 (Local Time) from KLPR Reporting Station
Light Snow Light Snow  
Wind Chill:   Ceiling: 3200
Heat Index: 18°   Visibility: 2.5mi
Dew Point: 14°   Wind: 16mph
Humidity: 84%   Direction: 60°ENE
Pressure: 29.85"   Gusts: NA
Location:  41.29°N, 82.22°W
Report Text: KLPR 260818Z AUTO 06014KT 2 1/2SM -SN BR OVC032 M08/M10 A2985 RMK AO2 P0000 T10781100 TSNO
Loading
Personal Weather Stations






























Interactive Weather Map New forecast layout! Learn more

10-Day Weather Forecast

Advertisements
Track Severe Weather on mobile